Time;durP1;ratioP1;P1;durP2;ratioP2;P2;SDS_P1;SDS_P2;PMS_P1;PMS_P2;Temp;Humidity;BMP_temperature;BMP_pressure;BME280_temperature;BME280_humidity;BME280_pressure;Samples;Min_cycle;Max_cycle;Signal;HPM_P1;HPM_P2
2023/05/06 00:00:21;;;;;;;6.85;4.85;;;;;;;;;;2038732;29;20399;-87
2023/05/06 00:01:21;;;;;;;6.30;4.78;;;;;;;;;;2031058;29;20197;-88
2023/05/06 00:02:22;;;;;;;4.73;4.30;;;;;;;;;;1698722;29;9999856;-88
2023/05/06 00:03:23;;;;;;;6.60;5.00;;;;;;;;;;2038689;29;20375;-87
2023/05/06 00:04:23;;;;;;;6.63;5.15;;;;;;;;;;2038692;29;20027;-87
2023/05/06 00:05:24;;;;;;;5.97;4.97;;;;;;;;;;2047229;29;20050;-88
2023/05/06 00:06:24;;;;;;;;;;;;;;;;;;2047883;29;20509;-88
2023/05/06 00:07:25;;;;;;;6.33;4.33;;;;;;;;;;2038847;29;19936;-88
2023/05/06 00:08:25;;;;;;;;;;;;;;;;;;2039519;29;20403;-89
2023/05/06 00:09:25;;;;;;;6.17;4.60;;;;;;;;;;2039026;29;20031;-89
2023/05/06 00:10:26;;;;;;;6.00;4.75;;;;;;;;;;2038918;29;20061;-88
2023/05/06 00:11:26;;;;;;;6.63;5.30;;;;;;;;;;2038783;29;20488;-89
2023/05/06 00:12:27;;;;;;;6.53;4.95;;;;;;;;;;2047402;29;20087;-88
2023/05/06 00:13:27;;;;;;;7.03;4.93;;;;;;;;;;2038811;29;20488;-89
2023/05/06 00:14:27;;;;;;;;;;;;;;;;;;2039259;29;20028;-89
2023/05/06 00:15:28;;;;;;;6.10;4.73;;;;;;;;;;2039122;29;19911;-89
2023/05/06 00:16:28;;;;;;;6.07;4.85;;;;;;;;;;2031846;29;20044;-88
2023/05/06 00:17:28;;;;;;;7.75;5.38;;;;;;;;;;2040508;29;20024;-88
2023/05/06 00:18:29;;;;;;;6.55;4.95;;;;;;;;;;2048948;29;20023;-88
2023/05/06 00:19:30;;;;;;;5.93;5.32;;;;;;;;;;2040095;29;20487;-89
2023/05/06 00:20:31;;;;;;;6.57;5.25;;;;;;;;;;2040679;29;20022;-89
2023/05/06 00:21:31;;;;;;;7.45;5.47;;;;;;;;;;2040187;29;20022;-89
2023/05/06 00:22:33;;;;;;;8.10;5.78;;;;;;;;;;2032480;29;20128;-92
2023/05/06 00:23:33;;;;;;;7.88;5.90;;;;;;;;;;2032144;29;20629;-89
2023/05/06 00:24:33;;;;;;;7.55;5.03;;;;;;;;;;2039928;29;20031;-87
2023/05/06 00:25:34;;;;;;;6.00;4.88;;;;;;;;;;2048759;29;20077;-87
2023/05/06 00:26:34;;;;;;;7.40;5.38;;;;;;;;;;2048683;29;20047;-88
2023/05/06 00:27:35;;;;;;;7.70;5.43;;;;;;;;;;2048957;29;20034;-90
2023/05/06 00:28:35;;;;;;;;;;;;;;;;;;2040671;29;20361;-89
2023/05/06 00:29:35;;;;;;;6.93;5.53;;;;;;;;;;2039981;29;20001;-89
2023/05/06 00:30:36;;;;;;;8.68;5.35;;;;;;;;;;2040167;29;20114;-89
2023/05/06 00:31:36;;;;;;;7.00;5.57;;;;;;;;;;2032227;29;20107;-88
2023/05/06 00:32:37;;;;;;;7.78;5.43;;;;;;;;;;2040069;29;20082;-88
2023/05/06 00:33:37;;;;;;;8.27;6.10;;;;;;;;;;2032338;29;20099;-88
2023/05/06 00:34:37;;;;;;;7.38;5.30;;;;;;;;;;2039962;29;20558;-87
2023/05/06 00:35:38;;;;;;;5.80;5.20;;;;;;;;;;2039892;29;20217;-88
2023/05/06 00:36:38;;;;;;;7.60;5.60;;;;;;;;;;2032006;29;20051;-88
2023/05/06 00:37:39;;;;;;;8.02;5.20;;;;;;;;;;2032271;29;20103;-89
2023/05/06 00:38:39;;;;;;;5.85;4.97;;;;;;;;;;2040147;29;20035;-88
2023/05/06 00:39:39;;;;;;;7.03;5.25;;;;;;;;;;2048664;29;20031;-89
2023/05/06 00:40:40;;;;;;;8.25;5.90;;;;;;;;;;2044496;29;20024;-89
2023/05/06 00:41:40;;;;;;;8.00;5.43;;;;;;;;;;2050395;28;20063;-89
2023/05/06 00:42:41;;;;;;;7.00;5.57;;;;;;;;;;2058684;28;20043;-87
2023/05/06 00:43:41;;;;;;;;;;;;;;;;;;2049893;28;20012;-88
2023/05/06 00:44:41;;;;;;;11.20;6.53;;;;;;;;;;2045703;29;19986;-87
2023/05/06 00:45:42;;;;;;;;;;;;;;;;;;2052975;29;20054;-87
2023/05/06 00:46:42;;;;;;;14.43;8.10;;;;;;;;;;2049195;29;20254;-89
2023/05/06 00:47:43;;;;;;;7.78;5.63;;;;;;;;;;2040321;29;20027;-87
2023/05/06 00:48:44;;;;;;;8.00;5.53;;;;;;;;;;2040213;29;20138;-87
2023/05/06 00:49:48;;;;;;;8.15;5.53;;;;;;;;;;2048577;29;20031;-88
2023/05/06 00:50:49;;;;;;;8.75;5.45;;;;;;;;;;2049575;29;20411;-87
2023/05/06 00:51:51;;;;;;;8.43;5.85;;;;;;;;;;2040102;29;20055;-88
2023/05/06 00:52:53;;;;;;;6.85;5.28;;;;;;;;;;2040552;29;20027;-88
2023/05/06 00:53:54;;;;;;;7.70;5.55;;;;;;;;;;2040075;29;20023;-88
2023/05/06 00:54:54;;;;;;;6.88;5.45;;;;;;;;;;2031962;29;20586;-87
2023/05/06 00:55:55;;;;;;;7.22;5.05;;;;;;;;;;2039854;29;20020;-87
2023/05/06 00:56:55;;;;;;;7.05;5.47;;;;;;;;;;2032029;29;20024;-88
2023/05/06 00:57:56;;;;;;;;;;;;;;;;;;2032637;29;20035;-88
2023/05/06 00:58:57;;;;;;;7.27;5.50;;;;;;;;;;2042802;29;19967;-87
2023/05/06 00:59:58;;;;;;;8.23;5.53;;;;;;;;;;2049454;29;20023;-88
2023/05/06 01:01:00;;;;;;;7.53;5.72;;;;;;;;;;2048986;29;20020;-87
2023/05/06 01:02:00;;;;;;;8.45;5.60;;;;;;;;;;2050197;28;20008;-87
2023/05/06 01:03:01;;;;;;;7.95;5.30;;;;;;;;;;2048754;29;20060;-88
2023/05/06 01:04:01;;;;;;;7.90;5.63;;;;;;;;;;2046965;29;20023;-88
2023/05/06 01:05:08;;;;;;;8.05;5.82;;;;;;;;;;1873057;29;10304358;-87
2023/05/06 01:06:28;;;;;;;7.60;5.90;;;;;;;;;;2042784;29;20253;-87
2023/05/06 01:07:45;;;;;;;6.00;5.18;;;;;;;;;;2048901;29;20106;-87
2023/05/06 01:09:03;;;;;;;7.70;5.50;;;;;;;;;;2040163;29;20027;-87
2023/05/06 01:10:12;;;;;;;7.53;5.00;;;;;;;;;;2040001;29;20055;-87
2023/05/06 01:11:21;;;;;;;6.97;5.07;;;;;;;;;;2040987;29;20232;-87
2023/05/06 01:12:45;;;;;;;8.43;5.70;;;;;;;;;;2048591;29;20126;-87
2023/05/06 01:14:01;;;;;;;10.25;5.47;;;;;;;;;;2039540;29;20020;-88
2023/05/06 01:15:23;;;;;;;7.93;5.05;;;;;;;;;;2042082;29;20087;-88
2023/05/06 01:16:26;;;;;;;7.85;4.40;;;;;;;;;;2048559;29;20019;-87
2023/05/06 01:17:29;;;;;;;6.00;4.65;;;;;;;;;;2048282;29;20030;-87
2023/05/06 01:18:31;;;;;;;7.05;5.05;;;;;;;;;;2048348;29;20090;-87
2023/05/06 01:19:45;;;;;;;6.93;4.78;;;;;;;;;;2048491;29;20026;-90
2023/05/06 01:20:51;;;;;;;7.10;4.85;;;;;;;;;;2039887;29;20031;-88
2023/05/06 01:21:53;;;;;;;5.45;4.13;;;;;;;;;;2040661;29;20346;-88
2023/05/06 01:22:54;;;;;;;6.30;4.43;;;;;;;;;;2039610;29;20051;-88
2023/05/06 01:23:56;;;;;;;6.50;4.50;;;;;;;;;;2031862;29;20028;-89
2023/05/06 01:24:57;;;;;;;7.00;4.78;;;;;;;;;;2032136;29;20123;-88
2023/05/06 01:25:57;;;;;;;7.28;4.95;;;;;;;;;;2031871;29;20027;-89
2023/05/06 01:26:57;;;;;;;6.18;4.63;;;;;;;;;;2039680;29;20024;-88
2023/05/06 01:27:58;;;;;;;6.90;4.80;;;;;;;;;;2048224;29;20492;-87
2023/05/06 01:29:00;;;;;;;4.35;3.95;;;;;;;;;;2048122;28;20019;-88
2023/05/06 01:30:01;;;;;;;5.65;4.38;;;;;;;;;;2048240;29;20027;-89
2023/05/06 01:31:07;;;;;;;5.28;4.30;;;;;;;;;;2039405;29;20027;-88
2023/05/06 01:32:32;;;;;;;6.22;4.07;;;;;;;;;;2040677;29;20349;-89
2023/05/06 01:33:53;;;;;;;7.30;4.40;;;;;;;;;;2052182;29;20062;-86
2023/05/06 01:35:17;;;;;;;6.00;4.55;;;;;;;;;;2049050;29;20034;-87
2023/05/06 01:36:32;;;;;;;5.25;4.50;;;;;;;;;;2039550;29;20522;-88
2023/05/06 01:37:54;;;;;;;5.30;4.15;;;;;;;;;;2033659;29;20048;-88
2023/05/06 01:39:02;;;;;;;5.78;4.65;;;;;;;;;;2042724;29;20038;-91
2023/05/06 01:40:04;;;;;;;6.78;4.28;;;;;;;;;;2048351;29;20031;-88
2023/05/06 01:41:05;;;;;;;6.47;4.28;;;;;;;;;;2048172;28;20051;-88
2023/05/06 01:42:08;;;;;;;7.88;4.43;;;;;;;;;;2039430;29;20564;-88
2023/05/06 01:43:11;;;;;;;6.00;4.15;;;;;;;;;;2039747;29;20391;-88
2023/05/06 01:44:13;;;;;;;5.57;4.78;;;;;;;;;;2048223;29;20082;-89
2023/05/06 01:45:15;;;;;;;4.88;3.90;;;;;;;;;;2048238;29;20077;-88
2023/05/06 01:46:21;;;;;;;5.03;3.97;;;;;;;;;;2048196;29;20023;-88
2023/05/06 01:47:22;;;;;;;7.03;4.25;;;;;;;;;;2048028;29;20569;-88
2023/05/06 01:48:30;;;;;;;6.10;4.60;;;;;;;;;;2048394;29;20395;-89
2023/05/06 01:49:31;;;;;;;5.18;4.35;;;;;;;;;;2048493;29;20023;-89
2023/05/06 01:50:32;;;;;;;6.88;3.78;;;;;;;;;;2039569;29;20028;-87
2023/05/06 01:51:33;;;;;;;7.53;4.32;;;;;;;;;;2032142;29;20056;-89
2023/05/06 01:52:33;;;;;;;4.88;4.10;;;;;;;;;;2031406;29;20043;-89
2023/05/06 01:53:33;;;;;;;5.85;4.00;;;;;;;;;;2039563;29;20281;-89
2023/05/06 01:54:34;;;;;;;6.03;4.13;;;;;;;;;;2048280;29;20091;-87
2023/05/06 01:55:34;;;;;;;6.05;3.85;;;;;;;;;;2048141;29;20052;-89
2023/05/06 01:56:35;;;;;;;6.63;4.57;;;;;;;;;;2047933;29;20438;-89
2023/05/06 01:57:35;;;;;;;6.03;4.25;;;;;;;;;;2039281;29;20031;-90
2023/05/06 01:58:36;;;;;;;5.78;4.63;;;;;;;;;;2039374;29;20138;-88
2023/05/06 01:59:36;;;;;;;4.93;3.67;;;;;;;;;;2048009;29;20079;-87
2023/05/06 02:00:38;;;;;;;6.03;4.13;;;;;;;;;;2048021;29;20027;-89
2023/05/06 02:01:38;;;;;;;8.40;4.57;;;;;;;;;;2039167;29;20115;-87
2023/05/06 02:02:39;;;;;;;5.40;4.38;;;;;;;;;;2039296;29;20028;-87
2023/05/06 02:03:39;;;;;;;4.55;4.15;;;;;;;;;;2047662;29;20035;-87
2023/05/06 02:04:41;;;;;;;5.05;4.47;;;;;;;;;;2048006;29;20039;-88
2023/05/06 02:05:41;;;;;;;7.05;4.95;;;;;;;;;;2048103;29;20097;-88
2023/05/06 02:06:41;;;;;;;4.35;3.95;;;;;;;;;;2047980;29;20396;-88
2023/05/06 02:07:42;;;;;;;5.53;3.92;;;;;;;;;;2039668;29;20038;-88
2023/05/06 02:08:42;;;;;;;5.07;4.45;;;;;;;;;;2032655;29;20445;-87
2023/05/06 02:09:43;;;;;;;6.45;4.30;;;;;;;;;;2032601;29;20063;-87
2023/05/06 02:10:44;;;;;;;;;;;;;;;;;;2048609;29;20043;-89
2023/05/06 02:11:45;;;;;;;6.30;4.37;;;;;;;;;;2039332;29;19987;-88
2023/05/06 02:12:45;;;;;;;6.05;4.32;;;;;;;;;;2039320;29;20020;-89
2023/05/06 02:13:46;;;;;;;8.80;4.82;;;;;;;;;;2048035;29;20027;-88
2023/05/06 02:14:46;;;;;;;8.50;5.57;;;;;;;;;;2039301;29;20177;-89
2023/05/06 02:15:51;;;;;;;7.50;4.78;;;;;;;;;;2039251;29;20047;-89
2023/05/06 02:16:51;;;;;;;6.38;4.35;;;;;;;;;;2047357;29;20468;-88
2023/05/06 02:17:52;;;;;;;9.18;4.85;;;;;;;;;;2047079;29;20034;-88
2023/05/06 02:18:53;;;;;;;9.70;6.15;;;;;;;;;;2039191;29;20028;-88
2023/05/06 02:19:53;;;;;;;7.13;5.05;;;;;;;;;;2031208;29;20032;-89
2023/05/06 02:20:54;;;;;;;7.70;4.95;;;;;;;;;;2031355;29;20080;-88
2023/05/06 02:21:54;;;;;;;;;;;;;;;;;;2039535;29;20036;-88
2023/05/06 02:22:55;;;;;;;9.37;5.20;;;;;;;;;;2047966;29;19917;-87
2023/05/06 02:23:55;;;;;;;7.07;4.80;;;;;;;;;;2039070;29;20566;-88
2023/05/06 02:24:55;;;;;;;8.05;5.15;;;;;;;;;;2032330;29;20408;-85
2023/05/06 02:25:57;;;;;;;9.45;5.40;;;;;;;;;;2043686;29;20027;-89
2023/05/06 02:26:58;;;;;;;8.15;5.40;;;;;;;;;;2039165;29;20209;-87
2023/05/06 02:27:58;;;;;;;6.63;4.70;;;;;;;;;;2031300;29;20031;-87
2023/05/06 02:28:58;;;;;;;7.35;4.93;;;;;;;;;;2039279;29;20024;-87
2023/05/06 02:29:59;;;;;;;8.50;5.88;;;;;;;;;;2039234;29;20467;-89
2023/05/06 02:30:59;;;;;;;7.88;4.60;;;;;;;;;;2039092;29;20028;-87
2023/05/06 02:32:00;;;;;;;7.07;5.05;;;;;;;;;;2039170;29;20492;-87
2023/05/06 02:33:00;;;;;;;6.45;4.78;;;;;;;;;;2031134;29;20415;-89
2023/05/06 02:34:01;;;;;;;7.72;5.07;;;;;;;;;;2039103;29;20043;-88
2023/05/06 02:35:01;;;;;;;6.78;4.60;;;;;;;;;;2047692;29;20027;-88
2023/05/06 02:36:02;;;;;;;5.70;4.95;;;;;;;;;;2039045;29;20027;-89
2023/05/06 02:37:02;;;;;;;7.75;4.97;;;;;;;;;;2038960;29;20054;-89
2023/05/06 02:38:03;;;;;;;7.15;4.80;;;;;;;;;;2047510;29;20067;-89
2023/05/06 02:39:03;;;;;;;7.32;4.60;;;;;;;;;;2038902;29;20067;-88
2023/05/06 02:40:05;;;;;;;;;;;;;;;;;;2039221;29;20024;-87
2023/05/06 02:41:05;;;;;;;;;;;;;;;;;;2047937;29;19994;-88
2023/05/06 02:42:06;;;;;;;6.23;4.67;;;;;;;;;;2039160;29;20334;-88
2023/05/06 02:43:06;;;;;;;7.93;5.03;;;;;;;;;;2038845;29;20126;-88
2023/05/06 02:44:06;;;;;;;8.88;5.05;;;;;;;;;;2038968;29;20028;-88
2023/05/06 02:45:07;;;;;;;6.22;4.78;;;;;;;;;;2047725;29;20540;-89
2023/05/06 02:46:08;;;;;;;5.72;5.05;;;;;;;;;;2047536;29;20524;-88
2023/05/06 02:47:08;;;;;;;6.13;4.65;;;;;;;;;;2047638;29;20090;-88
2023/05/06 02:48:08;;;;;;;;;;;;;;;;;;2039493;29;20032;-89
2023/05/06 02:49:09;;;;;;;6.67;4.90;;;;;;;;;;2031063;29;20435;-88
2023/05/06 02:50:09;;;;;;;7.15;4.95;;;;;;;;;;2031190;29;20028;-88
2023/05/06 02:51:10;;;;;;;7.22;5.10;;;;;;;;;;1692263;29;10001008;-89
2023/05/06 02:52:10;;;;;;;8.80;4.85;;;;;;;;;;2039242;29;20028;-88
2023/05/06 02:53:12;;;;;;;;;;;;;;;;;;2039517;29;20024;-88
2023/05/06 02:54:12;;;;;;;7.18;4.82;;;;;;;;;;2039587;29;20366;-88
2023/05/06 02:55:12;;;;;;;8.63;5.15;;;;;;;;;;2039157;29;20035;-87
2023/05/06 02:56:13;;;;;;;;;;;;;;;;;;2031592;29;20055;-89
2023/05/06 02:57:13;;;;;;;5.53;4.60;;;;;;;;;;2039004;29;19977;-88
2023/05/06 02:58:13;;;;;;;7.63;5.03;;;;;;;;;;2038973;29;20027;-88
2023/05/06 02:59:14;;;;;;;6.28;4.97;;;;;;;;;;2047781;29;20372;-88
2023/05/06 03:00:15;;;;;;;5.60;4.68;;;;;;;;;;2039150;29;20031;-87
2023/05/06 03:01:16;;;;;;;7.68;5.20;;;;;;;;;;2039402;29;20372;-88
2023/05/06 03:02:16;;;;;;;6.93;5.00;;;;;;;;;;2047798;29;20019;-88
2023/05/06 03:03:17;;;;;;;5.70;4.78;;;;;;;;;;2047615;29;20483;-87
2023/05/06 03:04:17;;;;;;;6.00;4.55;;;;;;;;;;2038981;29;20024;-87
2023/05/06 03:05:19;;;;;;;6.68;4.78;;;;;;;;;;2038946;29;20105;-87
2023/05/06 03:06:20;;;;;;;7.60;4.80;;;;;;;;;;2047476;29;20030;-87
2023/05/06 03:07:20;;;;;;;6.95;5.07;;;;;;;;;;2038969;29;20024;-87
2023/05/06 03:08:21;;;;;;;8.45;5.03;;;;;;;;;;1689996;29;10309576;-87
2023/05/06 03:09:21;;;;;;;6.53;4.75;;;;;;;;;;2049133;29;20051;-87
2023/05/06 03:10:21;;;;;;;;;;;;;;;;;;2049700;28;20008;-87
2023/05/06 03:11:22;;;;;;;7.50;5.07;;;;;;;;;;2036827;29;19919;-87
2023/05/06 03:12:24;;;;;;;7.93;4.75;;;;;;;;;;2033346;29;20139;-87
2023/05/06 03:13:24;;;;;;;9.05;5.32;;;;;;;;;;2040341;29;20032;-87
2023/05/06 03:14:25;;;;;;;8.32;5.47;;;;;;;;;;2048494;29;20098;-87
2023/05/06 03:15:26;;;;;;;7.15;5.32;;;;;;;;;;2048431;29;20025;-87
2023/05/06 03:16:26;;;;;;;8.85;4.82;;;;;;;;;;2040828;29;20043;-88
2023/05/06 03:17:26;;;;;;;6.60;4.93;;;;;;;;;;2035059;29;20089;-86
2023/05/06 03:18:27;;;;;;;7.90;5.03;;;;;;;;;;2040387;29;20024;-87
2023/05/06 03:19:27;;;;;;;5.93;4.97;;;;;;;;;;2048047;29;20024;-88
2023/05/06 03:20:28;;;;;;;6.82;5.28;;;;;;;;;;2047693;29;20110;-88
2023/05/06 03:21:29;;;;;;;8.02;5.32;;;;;;;;;;2047448;29;20321;-88
2023/05/06 03:22:29;;;;;;;7.85;5.90;;;;;;;;;;2047783;29;20023;-90
2023/05/06 03:23:30;;;;;;;7.82;5.63;;;;;;;;;;2038768;29;20055;-89
2023/05/06 03:24:31;;;;;;;7.28;5.40;;;;;;;;;;2038951;29;20028;-89
2023/05/06 03:25:31;;;;;;;6.78;5.18;;;;;;;;;;2039308;29;20061;-91
2023/05/06 03:26:32;;;;;;;;;;;;;;;;;;2055515;29;20028;-89
2023/05/06 03:27:32;;;;;;;8.77;5.53;;;;;;;;;;2057893;28;19930;-88
2023/05/06 03:28:32;;;;;;;;;;;;;;;;;;2049450;28;20154;-89
2023/05/06 03:29:34;;;;;;;6.03;4.33;;;;;;;;;;2044870;28;20017;-87
2023/05/06 03:30:34;;;;;;;8.00;5.32;;;;;;;;;;2052742;29;20467;-88
2023/05/06 03:31:34;;;;;;;7.18;5.25;;;;;;;;;;2039380;29;20023;-90
2023/05/06 03:32:36;;;;;;;9.10;5.70;;;;;;;;;;2039256;29;20398;-86
2023/05/06 03:33:36;;;;;;;7.57;5.00;;;;;;;;;;2047614;29;20085;-90
2023/05/06 03:34:37;;;;;;;5.95;4.72;;;;;;;;;;2039084;29;20019;-87
2023/05/06 03:35:38;;;;;;;;;;;;;;;;;;2031491;29;20200;-88
2023/05/06 03:36:39;;;;;;;7.30;5.35;;;;;;;;;;2038906;29;19943;-89
2023/05/06 03:37:39;;;;;;;6.47;5.38;;;;;;;;;;2047449;29;20117;-89
2023/05/06 03:38:40;;;;;;;6.55;5.05;;;;;;;;;;2047653;29;20448;-86
2023/05/06 03:39:40;;;;;;;6.57;5.35;;;;;;;;;;2039037;29;20035;-86
2023/05/06 03:40:42;;;;;;;8.63;5.13;;;;;;;;;;2038949;29;20137;-89
2023/05/06 03:41:42;;;;;;;9.48;4.93;;;;;;;;;;2047754;29;20057;-88
2023/05/06 03:42:43;;;;;;;8.68;5.00;;;;;;;;;;2047120;29;20031;-88
2023/05/06 03:43:44;;;;;;;8.57;5.10;;;;;;;;;;2047632;29;20034;-87
2023/05/06 03:44:44;;;;;;;7.80;5.45;;;;;;;;;;2047689;29;20023;-87
2023/05/06 03:45:45;;;;;;;8.18;5.85;;;;;;;;;;2039036;29;20063;-87
2023/05/06 03:46:45;;;;;;;8.10;4.85;;;;;;;;;;2046326;29;20019;-88
2023/05/06 03:47:46;;;;;;;7.35;5.35;;;;;;;;;;2031440;29;20535;-88
2023/05/06 03:48:49;;;;;;;8.18;5.30;;;;;;;;;;2023224;29;20039;-87
2023/05/06 03:49:50;;;;;;;9.05;5.38;;;;;;;;;;2032131;29;20067;-92
2023/05/06 03:50:50;;;;;;;8.20;5.85;;;;;;;;;;2032401;29;20028;-93
2023/05/06 03:51:52;;;;;;;7.97;5.90;;;;;;;;;;2032346;29;20032;-91
2023/05/06 03:52:52;;;;;;;7.65;5.60;;;;;;;;;;2040850;29;20030;-92
2023/05/06 03:53:53;;;;;;;9.18;6.00;;;;;;;;;;2041470;29;20031;-93
2023/05/06 03:54:54;;;;;;;7.07;5.43;;;;;;;;;;2041187;29;20042;-93
2023/05/06 03:55:55;;;;;;;7.15;5.65;;;;;;;;;;2042135;29;20123;-93
2023/05/06 03:56:55;;;;;;;7.65;5.60;;;;;;;;;;2026221;29;20048;-92
2023/05/06 03:57:56;;;;;;;7.90;5.30;;;;;;;;;;2035228;29;20598;-94
2023/05/06 03:58:56;;;;;;;9.65;5.88;;;;;;;;;;2043153;29;20127;-93
2023/05/06 03:59:57;;;;;;;7.63;6.22;;;;;;;;;;2043962;29;20558;-91
2023/05/06 04:00:59;;;;;;;9.70;6.28;;;;;;;;;;2054604;29;20041;-93
2023/05/06 04:02:00;;;;;;;8.00;5.32;;;;;;;;;;2044953;29;20024;-90
2023/05/06 04:03:02;;;;;;;8.15;6.07;;;;;;;;;;2042310;29;20063;-93
2023/05/06 04:04:02;;;;;;;9.63;6.38;;;;;;;;;;2041606;29;20511;-94
2023/05/06 04:05:03;;;;;;;9.68;6.03;;;;;;;;;;2042257;29;20071;-93
2023/05/06 04:06:04;;;;;;;7.07;5.40;;;;;;;;;;2041927;29;20031;-94
2023/05/06 04:07:05;;;;;;;6.88;5.80;;;;;;;;;;2043614;29;20051;-94
2023/05/06 04:08:05;;;;;;;8.40;6.00;;;;;;;;;;2042963;28;20031;-91
2023/05/06 04:09:06;;;;;;;9.35;6.05;;;;;;;;;;2050888;28;20020;-92
2023/05/06 04:10:07;;;;;;;8.98;6.47;;;;;;;;;;2050147;29;20043;-93
2023/05/06 04:11:07;;;;;;;7.40;6.20;;;;;;;;;;2041730;29;20042;-95
2023/05/06 04:12:07;;;;;;;8.93;6.00;;;;;;;;;;2033794;29;20031;-93
2023/05/06 04:13:08;;;;;;;10.15;6.70;;;;;;;;;;2041630;29;20042;-94
2023/05/06 04:14:08;;;;;;;9.88;6.22;;;;;;;;;;2033586;29;20028;-94
2023/05/06 04:15:09;;;;;;;8.88;6.25;;;;;;;;;;2041854;29;20077;-94
2023/05/06 04:16:11;;;;;;;9.63;6.20;;;;;;;;;;2041452;29;20530;-94
2023/05/06 04:17:11;;;;;;;9.35;6.40;;;;;;;;;;2032586;29;20028;-89
2023/05/06 04:18:17;;;;;;;9.88;7.00;;;;;;;;;;2040656;29;20069;-90
2023/05/06 04:19:19;;;;;;;12.18;6.80;;;;;;;;;;2051774;28;20081;-89
2023/05/06 04:20:20;;;;;;;9.52;6.57;;;;;;;;;;2048975;29;20079;-89
2023/05/06 04:21:20;;;;;;;9.23;6.85;;;;;;;;;;2049289;29;20125;-90
2023/05/06 04:22:21;;;;;;;8.63;6.72;;;;;;;;;;2049265;29;20027;-89
2023/05/06 04:23:21;;;;;;;11.23;7.03;;;;;;;;;;2048962;29;20039;-92
2023/05/06 04:24:21;;;;;;;8.32;6.18;;;;;;;;;;2040086;29;20032;-89
2023/05/06 04:25:22;;;;;;;10.15;7.05;;;;;;;;;;2044163;29;20020;-89
2023/05/06 04:26:22;;;;;;;10.02;7.03;;;;;;;;;;2048924;29;20424;-89
2023/05/06 04:27:25;;;;;;;9.63;7.50;;;;;;;;;;2040201;29;20026;-90
2023/05/06 04:28:25;;;;;;;10.43;6.85;;;;;;;;;;2040658;29;20059;-89
2023/05/06 04:29:26;;;;;;;9.73;6.85;;;;;;;;;;2048861;29;20106;-89
2023/05/06 04:30:27;;;;;;;9.98;6.90;;;;;;;;;;2040086;29;20024;-89
2023/05/06 04:31:28;;;;;;;9.25;6.68;;;;;;;;;;2040401;29;20024;-89
2023/05/06 04:32:28;;;;;;;10.02;6.63;;;;;;;;;;2039965;29;20498;-89
2023/05/06 04:33:30;;;;;;;12.93;6.93;;;;;;;;;;2032404;29;20024;-89
2023/05/06 04:34:31;;;;;;;9.68;6.53;;;;;;;;;;2032316;29;20020;-89
2023/05/06 04:35:32;;;;;;;8.70;6.57;;;;;;;;;;2032225;29;20468;-90
2023/05/06 04:36:33;;;;;;;8.63;6.68;;;;;;;;;;2040462;29;20087;-88
2023/05/06 04:37:33;;;;;;;9.98;6.18;;;;;;;;;;2040556;29;20456;-90
2023/05/06 04:38:34;;;;;;;7.50;6.05;;;;;;;;;;2032476;29;20023;-89
2023/05/06 04:39:38;;;;;;;8.50;6.30;;;;;;;;;;2032193;29;20028;-89
2023/05/06 04:40:38;;;;;;;12.40;6.22;;;;;;;;;;2019834;29;20048;-89
2023/05/06 04:41:38;;;;;;;7.38;6.30;;;;;;;;;;2039924;29;20028;-89
2023/05/06 04:42:39;;;;;;;11.02;6.65;;;;;;;;;;2048522;29;20019;-88
2023/05/06 04:43:40;;;;;;;10.57;6.45;;;;;;;;;;2048538;28;20102;-90
2023/05/06 04:44:41;;;;;;;9.07;6.18;;;;;;;;;;2040060;29;20448;-88
2023/05/06 04:45:48;;;;;;;9.23;5.93;;;;;;;;;;2040079;29;20160;-88
2023/05/06 04:46:48;;;;;;;9.45;6.75;;;;;;;;;;2051262;28;20027;-89
2023/05/06 04:47:48;;;;;;;9.82;6.25;;;;;;;;;;2048507;29;20019;-89
2023/05/06 04:48:49;;;;;;;8.88;6.13;;;;;;;;;;2039267;29;20475;-88
2023/05/06 04:49:49;;;;;;;8.85;5.85;;;;;;;;;;2039645;29;20437;-88
2023/05/06 04:50:50;;;;;;;8.95;6.22;;;;;;;;;;2048040;29;20050;-88
2023/05/06 04:51:50;;;;;;;8.68;5.70;;;;;;;;;;2039790;29;20023;-88
2023/05/06 04:52:57;;;;;;;8.50;5.60;;;;;;;;;;1903963;29;10183432;-88
2023/05/06 04:53:58;;;;;;;9.27;6.22;;;;;;;;;;2040495;29;20245;-88
2023/05/06 04:54:58;;;;;;;7.80;5.63;;;;;;;;;;2039234;29;20087;-88
2023/05/06 04:55:58;;;;;;;7.32;5.82;;;;;;;;;;2039709;29;20035;-88
2023/05/06 04:56:59;;;;;;;7.38;5.45;;;;;;;;;;2037336;28;20027;-88
2023/05/06 04:58:01;;;;;;;7.03;5.25;;;;;;;;;;2039357;29;20122;-87
2023/05/06 04:59:02;;;;;;;6.93;5.35;;;;;;;;;;2040038;29;20020;-88
2023/05/06 05:00:02;;;;;;;7.78;5.82;;;;;;;;;;2034253;29;20502;-85
2023/05/06 05:01:05;;;;;;;6.55;5.03;;;;;;;;;;2036486;29;20059;-88
2023/05/06 05:02:06;;;;;;;6.15;4.72;;;;;;;;;;2039905;29;20024;-88
2023/05/06 05:03:06;;;;;;;7.68;5.25;;;;;;;;;;2047944;28;20060;-89
2023/05/06 05:04:07;;;;;;;7.43;4.85;;;;;;;;;;2047919;29;20419;-88
2023/05/06 05:05:07;;;;;;;8.52;5.13;;;;;;;;;;2048436;29;20114;-88
2023/05/06 05:06:08;;;;;;;6.40;4.75;;;;;;;;;;2039655;29;20032;-88
2023/05/06 05:07:09;;;;;;;6.75;5.07;;;;;;;;;;2039557;29;20419;-88
2023/05/06 05:08:12;;;;;;;5.95;5.03;;;;;;;;;;2031940;29;20060;-88
2023/05/06 05:09:12;;;;;;;9.57;5.55;;;;;;;;;;2039297;29;20023;-88
2023/05/06 05:10:13;;;;;;;6.57;5.22;;;;;;;;;;2032266;29;20024;-88
2023/05/06 05:11:13;;;;;;;7.72;5.22;;;;;;;;;;2039387;29;20038;-88
2023/05/06 05:12:13;;;;;;;6.05;4.85;;;;;;;;;;2039541;29;20089;-90
2023/05/06 05:13:14;;;;;;;9.75;5.40;;;;;;;;;;2039514;29;20042;-89
2023/05/06 05:14:16;;;;;;;6.43;4.75;;;;;;;;;;2039657;29;20171;-88
2023/05/06 05:15:16;;;;;;;7.32;4.47;;;;;;;;;;2039696;29;20020;-88
2023/05/06 05:16:17;;;;;;;7.40;4.45;;;;;;;;;;2039471;29;20160;-88
2023/05/06 05:17:17;;;;;;;5.53;4.43;;;;;;;;;;2048521;29;20027;-88
2023/05/06 05:18:18;;;;;;;5.05;4.00;;;;;;;;;;2048255;29;20012;-87
2023/05/06 05:19:20;;;;;;;5.70;4.20;;;;;;;;;;2047987;29;20448;-87
2023/05/06 05:20:20;;;;;;;6.70;4.60;;;;;;;;;;2047887;29;20045;-89
2023/05/06 05:21:21;;;;;;;6.22;3.90;;;;;;;;;;2039398;29;20436;-88
2023/05/06 05:22:21;;;;;;;6.28;3.75;;;;;;;;;;2039471;29;20126;-87
2023/05/06 05:23:22;;;;;;;5.13;3.88;;;;;;;;;;2048309;29;20506;-88
2023/05/06 05:24:22;;;;;;;6.55;4.45;;;;;;;;;;2047801;29;20207;-88
2023/05/06 05:25:22;;;;;;;4.78;3.75;;;;;;;;;;2039446;29;20032;-88
2023/05/06 05:26:23;;;;;;;5.03;3.80;;;;;;;;;;2031194;29;20489;-88
2023/05/06 05:27:23;;;;;;;5.78;4.00;;;;;;;;;;2031946;29;20075;-88
2023/05/06 05:28:24;;;;;;;4.60;3.60;;;;;;;;;;2039810;29;20024;-89
2023/05/06 05:29:24;;;;;;;6.07;4.10;;;;;;;;;;2049024;29;20019;-89
2023/05/06 05:30:25;;;;;;;6.68;4.43;;;;;;;;;;2040836;29;20101;-89
2023/05/06 05:31:25;;;;;;;6.97;3.95;;;;;;;;;;2040617;29;20130;-89
2023/05/06 05:32:26;;;;;;;6.30;3.55;;;;;;;;;;2040525;29;20111;-89
2023/05/06 05:33:26;;;;;;;6.40;3.72;;;;;;;;;;2049258;29;20114;-87
2023/05/06 05:34:26;;;;;;;4.68;3.63;;;;;;;;;;2055193;28;20003;-87
2023/05/06 05:35:27;;;;;;;5.75;3.50;;;;;;;;;;2058747;28;20096;-88
2023/05/06 05:36:27;;;;;;;4.88;3.58;;;;;;;;;;2058503;28;20086;-87
2023/05/06 05:37:28;;;;;;;4.85;3.40;;;;;;;;;;2055757;28;20051;-87
2023/05/06 05:38:28;;;;;;;6.93;3.83;;;;;;;;;;2042253;29;20028;-87
2023/05/06 05:39:28;;;;;;;4.45;3.38;;;;;;;;;;2043841;29;20035;-88
2023/05/06 05:40:29;;;;;;;5.07;3.30;;;;;;;;;;2044634;29;20621;-87
2023/05/06 05:41:30;;;;;;;5.07;3.30;;;;;;;;;;2041069;29;20020;-87
2023/05/06 05:42:32;;;;;;;6.10;4.20;;;;;;;;;;2040948;29;20051;-87
2023/05/06 05:43:32;;;;;;;7.35;3.85;;;;;;;;;;1693088;29;10272436;-87
2023/05/06 05:44:33;;;;;;;4.88;3.53;;;;;;;;;;2040337;29;20345;-88
2023/05/06 05:45:33;;;;;;;4.75;3.40;;;;;;;;;;2040473;29;20102;-88
2023/05/06 05:46:34;;;;;;;5.05;3.25;;;;;;;;;;2045011;29;20106;-88
2023/05/06 05:47:34;;;;;;;3.55;3.17;;;;;;;;;;2048561;29;20035;-88
2023/05/06 05:48:35;;;;;;;7.05;3.70;;;;;;;;;;2048634;29;20621;-89
2023/05/06 05:49:36;;;;;;;3.58;3.28;;;;;;;;;;2040431;29;20055;-89
2023/05/06 05:50:36;;;;;;;3.42;2.85;;;;;;;;;;2040080;29;20534;-88
2023/05/06 05:51:36;;;;;;;5.45;3.22;;;;;;;;;;2034080;29;20032;-87
2023/05/06 05:52:37;;;;;;;4.85;3.72;;;;;;;;;;1683357;28;10678530;-89
2023/05/06 05:53:43;;;;;;;5.20;3.28;;;;;;;;;;2048554;28;20035;-88
2023/05/06 05:54:46;;;;;;;4.25;2.92;;;;;;;;;;2052773;28;20044;-88
2023/05/06 05:55:51;;;;;;;4.95;3.53;;;;;;;;;;2051472;28;20039;-87
2023/05/06 05:56:54;;;;;;;8.07;3.70;;;;;;;;;;2043381;29;20031;-86
2023/05/06 05:57:57;;;;;;;4.28;3.17;;;;;;;;;;1686889;29;10222561;-88
2023/05/06 05:58:57;;;;;;;4.22;2.92;;;;;;;;;;2028272;29;20035;-89
2023/05/06 05:59:58;;;;;;;5.90;2.88;;;;;;;;;;2033314;29;20028;-89
2023/05/06 06:01:00;;;;;;;5.15;2.88;;;;;;;;;;2038451;29;20202;-90
2023/05/06 06:02:00;;;;;;;5.65;3.13;;;;;;;;;;2030887;29;20052;-89
2023/05/06 06:03:01;;;;;;;4.47;3.28;;;;;;;;;;2032890;29;20535;-87
2023/05/06 06:04:01;;;;;;;4.18;3.45;;;;;;;;;;2036739;29;20068;-88
2023/05/06 06:05:02;;;;;;;6.10;3.55;;;;;;;;;;2036796;29;20034;-88
2023/05/06 06:06:03;;;;;;;7.38;3.92;;;;;;;;;;2042321;29;20035;-88
2023/05/06 06:07:03;;;;;;;4.88;3.55;;;;;;;;;;2040449;29;20039;-89
2023/05/06 06:08:04;;;;;;;6.55;5.75;;;;;;;;;;2036530;29;20431;-89
2023/05/06 06:09:05;;;;;;;5.82;4.20;;;;;;;;;;2038135;29;20051;-88
2023/05/06 06:10:06;;;;;;;5.13;4.40;;;;;;;;;;2033955;29;20036;-89
2023/05/06 06:11:06;;;;;;;4.43;3.40;;;;;;;;;;2032366;29;20119;-88